createdAt,value
2023-02-19T00:03:13.105Z,10.67
2023-02-19T00:08:14.555Z,10.58
2023-02-19T00:13:16.250Z,10.46
2023-02-19T00:18:18.033Z,10.41
2023-02-19T00:23:19.432Z,10.37
2023-02-19T00:28:21.456Z,10.27
2023-02-19T00:33:22.929Z,10.25
2023-02-19T00:38:24.372Z,10.22
2023-02-19T00:43:25.903Z,10.15
2023-02-19T00:48:27.337Z,10.07
2023-02-19T00:53:28.804Z,10.02
2023-02-19T00:58:30.204Z,9.95
2023-02-19T01:03:31.929Z,9.93
2023-02-19T01:08:34.193Z,9.94
2023-02-19T01:13:35.812Z,9.93
2023-02-19T01:18:37.249Z,9.87
2023-02-19T01:23:39.038Z,9.88
2023-02-19T01:28:40.735Z,9.90
2023-02-19T01:33:50.251Z,9.93
2023-02-19T01:38:52.222Z,9.89
2023-02-19T01:44:18.395Z,9.90
2023-02-19T01:49:37.505Z,9.91
2023-02-19T01:54:42.394Z,9.93
2023-02-19T01:59:44.154Z,9.86
2023-02-19T02:04:45.547Z,9.71
2023-02-19T02:10:05.683Z,9.68
2023-02-19T02:15:07.874Z,9.69
2023-02-19T02:20:31.155Z,9.64
2023-02-19T02:25:38.926Z,9.72
2023-02-19T02:31:02.753Z,9.68
2023-02-19T02:36:08.793Z,9.65
2023-02-19T02:41:11.897Z,9.69
2023-02-19T02:46:22.740Z,9.70
2023-02-19T02:51:40.180Z,9.69
2023-02-19T02:56:44.085Z,9.71
2023-02-19T03:02:07.749Z,9.77
2023-02-19T03:07:09.516Z,9.80
2023-02-19T03:12:34.018Z,9.76
2023-02-19T03:18:02.274Z,9.78
2023-02-19T03:23:06.296Z,9.86
2023-02-19T03:28:11.226Z,9.90
2023-02-19T03:33:18.659Z,9.93
2023-02-19T03:38:25.080Z,9.95
2023-02-19T03:43:41.500Z,9.97
2023-02-19T03:48:53.379Z,9.98
2023-02-19T03:54:12.715Z,9.96
2023-02-19T03:59:33.931Z,9.97
2023-02-19T04:04:39.625Z,10.04
2023-02-19T04:09:44.503Z,10.05
2023-02-19T04:15:00.807Z,10.08
2023-02-19T04:20:07.059Z,10.04
2023-02-19T04:25:09.400Z,10.01
2023-02-19T04:30:12.775Z,9.98
2023-02-19T04:35:14.232Z,9.97
2023-02-19T04:40:15.733Z,9.98
2023-02-19T04:45:17.202Z,9.93
2023-02-19T04:50:18.684Z,9.95
2023-02-19T04:55:20.171Z,9.90
2023-02-19T05:00:21.700Z,9.72
2023-02-19T05:05:23.184Z,9.76
2023-02-19T05:10:24.590Z,9.69
2023-02-19T05:15:25.994Z,9.61
2023-02-19T05:20:27.410Z,9.53
2023-02-19T05:25:28.804Z,9.58
2023-02-19T05:30:31.386Z,9.57
2023-02-19T05:35:32.901Z,9.53
2023-02-19T05:40:34.635Z,9.45
2023-02-19T05:45:36.604Z,9.40
2023-02-19T05:50:39.769Z,9.38
2023-02-19T05:55:41.450Z,9.36
2023-02-19T06:00:43.086Z,9.42
2023-02-19T06:05:44.565Z,9.46
2023-02-19T06:10:46.018Z,9.46
2023-02-19T06:15:48.255Z,9.49
2023-02-19T06:20:49.790Z,9.53
2023-02-19T06:25:51.228Z,9.50
2023-02-19T06:30:52.686Z,9.46
2023-02-19T06:35:54.733Z,9.42
2023-02-19T06:41:00.730Z,9.46
2023-02-19T06:46:05.088Z,9.40
2023-02-19T06:51:06.710Z,9.41
2023-02-19T06:56:23.456Z,9.42
2023-02-19T07:01:25.464Z,9.45
2023-02-19T07:06:28.302Z,9.54
2023-02-19T07:11:32.438Z,9.59
2023-02-19T07:16:34.386Z,9.64
2023-02-19T07:21:37.818Z,9.70
2023-02-19T07:26:39.340Z,9.78
2023-02-19T07:31:41.021Z,9.89
2023-02-19T07:36:42.600Z,9.99
2023-02-19T07:41:44.089Z,10.08
2023-02-19T07:46:45.584Z,10.16
2023-02-19T07:51:47.075Z,10.04
2023-02-19T07:56:48.607Z,9.94
2023-02-19T08:02:09.137Z,9.88
2023-02-19T08:07:10.475Z,9.95
2023-02-19T08:12:30.916Z,9.92
2023-02-19T08:17:32.373Z,9.97
2023-02-19T08:22:33.842Z,10.01
2023-02-19T08:27:35.659Z,10.08
2023-02-19T08:32:37.122Z,10.16
2023-02-19T08:37:38.629Z,10.24
2023-02-19T08:42:40.190Z,10.60
2023-02-19T08:47:41.632Z,10.84
2023-02-19T08:52:43.191Z,11.03
2023-02-19T08:57:44.938Z,11.10
2023-02-19T09:02:46.569Z,11.14
2023-02-19T09:07:48.104Z,11.22
2023-02-19T09:12:49.853Z,11.47
2023-02-19T09:17:52.790Z,11.62
2023-02-19T09:22:58.694Z,11.70
2023-02-19T09:28:00.143Z,11.80
2023-02-19T09:33:01.666Z,11.88
2023-02-19T09:38:03.433Z,12.03
2023-02-19T09:43:11.916Z,12.10
2023-02-19T09:48:13.462Z,12.12
2023-02-19T09:53:30.870Z,11.99
2023-02-19T09:58:35.694Z,11.90
2023-02-19T10:03:43.756Z,11.91
2023-02-19T10:08:46.422Z,11.87
2023-02-19T10:14:14.305Z,11.86
2023-02-19T10:19:16.349Z,11.90
2023-02-19T10:24:27.230Z,11.81
2023-02-19T10:29:29.440Z,11.86
2023-02-19T10:34:31.151Z,11.91
2023-02-19T10:39:32.623Z,12.02
2023-02-19T10:44:43.658Z,12.10
2023-02-19T10:49:48.712Z,12.48
2023-02-19T10:55:13.318Z,12.64
2023-02-19T11:00:22.778Z,12.93
2023-02-19T11:05:25.179Z,13.01
2023-02-19T11:10:36.294Z,12.77
2023-02-19T11:15:38.007Z,13.21
2023-02-19T11:20:59.959Z,13.61
2023-02-19T11:26:05.818Z,13.86
2023-02-19T11:31:19.866Z,14.10
2023-02-19T11:36:38.742Z,14.19
2023-02-19T11:42:02.131Z,14.42
2023-02-19T11:47:16.032Z,14.38
2023-02-19T11:52:42.133Z,14.35
2023-02-19T11:57:47.847Z,14.37
2023-02-19T12:02:58.509Z,14.30
2023-02-19T12:08:29.381Z,14.22
2023-02-19T12:13:56.660Z,14.23
2023-02-19T12:19:17.034Z,14.42
2023-02-19T12:24:36.943Z,14.35
2023-02-19T12:29:57.404Z,14.16
2023-02-19T12:35:05.147Z,14.10
2023-02-19T12:40:34.850Z,14.22
2023-02-19T12:45:57.877Z,14.42
2023-02-19T12:51:27.748Z,14.39
2023-02-19T12:56:39.386Z,14.27
2023-02-19T13:01:52.725Z,14.03
2023-02-19T13:07:01.720Z,14.09
2023-02-19T13:12:21.443Z,14.08
2023-02-19T13:17:47.213Z,14.01
2023-02-19T13:23:20.729Z,13.88
2023-02-19T13:28:45.072Z,13.90
2023-02-19T13:34:15.853Z,13.97
2023-02-19T13:39:21.095Z,13.95
2023-02-19T13:44:30.024Z,13.87
2023-02-19T13:49:31.715Z,13.79
2023-02-19T13:54:40.405Z,13.67
2023-02-19T13:59:45.133Z,13.64
2023-02-19T14:04:50.392Z,13.70
2023-02-19T14:09:51.925Z,13.75
2023-02-19T14:14:55.027Z,13.71
2023-02-19T14:20:09.489Z,13.59
2023-02-19T14:25:38.569Z,13.63
2023-02-19T14:30:52.449Z,13.52
2023-02-19T14:36:03.200Z,13.45
2023-02-19T14:41:06.736Z,13.43
2023-02-19T14:46:18.594Z,13.35
2023-02-19T14:51:35.346Z,13.22
2023-02-19T14:56:36.977Z,13.13
2023-02-19T15:01:39.113Z,12.97
2023-02-19T15:06:40.862Z,12.92
2023-02-19T15:11:43.604Z,12.89
2023-02-19T15:16:45.156Z,12.78
2023-02-19T15:21:48.021Z,12.70
2023-02-19T15:26:54.350Z,12.65
2023-02-19T15:31:58.334Z,12.43
2023-02-19T15:37:06.424Z,12.27
2023-02-19T15:42:14.872Z,12.17
2023-02-19T15:47:34.466Z,12.05
2023-02-19T15:53:05.021Z,12.00
2023-02-19T15:58:12.072Z,11.87
2023-02-19T16:03:19.575Z,11.84
2023-02-19T16:08:21.617Z,11.86
2023-02-19T16:13:25.165Z,11.82
2023-02-19T16:18:27.028Z,11.79
2023-02-19T16:23:28.851Z,11.82
2023-02-19T16:28:36.985Z,11.71
2023-02-19T16:33:42.391Z,11.71
2023-02-19T16:39:03.162Z,11.68
2023-02-19T16:44:25.730Z,11.48
2023-02-19T16:49:27.208Z,11.37
2023-02-19T16:54:28.658Z,11.35
2023-02-19T16:59:30.242Z,11.33
2023-02-19T17:04:31.903Z,11.35
2023-02-19T17:09:33.289Z,11.25
2023-02-19T17:14:34.765Z,11.19
2023-02-19T17:19:36.340Z,11.15
2023-02-19T17:24:37.793Z,11.12
2023-02-19T17:29:40.043Z,11.10
2023-02-19T17:34:41.985Z,11.13
2023-02-19T17:39:43.422Z,11.04
2023-02-19T17:44:46.716Z,11.02
2023-02-19T17:49:48.177Z,10.96
2023-02-19T17:54:49.584Z,10.92
2023-02-19T17:59:51.005Z,10.85
2023-02-19T18:04:52.690Z,10.79
2023-02-19T18:09:54.166Z,10.78
2023-02-19T18:14:56.619Z,10.77
2023-02-19T18:19:58.173Z,10.72
2023-02-19T18:24:59.678Z,10.68
2023-02-19T18:30:01.621Z,10.66
2023-02-19T18:35:03.680Z,10.66
2023-02-19T18:40:06.547Z,10.61
2023-02-19T18:45:08.440Z,10.63
2023-02-19T18:50:12.111Z,10.65
2023-02-19T18:55:13.647Z,10.68
2023-02-19T19:00:21.425Z,10.76
2023-02-19T19:05:23.289Z,10.73
2023-02-19T19:10:25.737Z,10.69
2023-02-19T19:15:27.389Z,10.66
2023-02-19T19:20:28.823Z,10.61
2023-02-19T19:25:30.310Z,10.61
2023-02-19T19:30:33.628Z,10.59
2023-02-19T19:35:35.161Z,10.59
2023-02-19T19:40:36.551Z,10.50
2023-02-19T19:45:38.634Z,10.43
2023-02-19T19:50:40.075Z,10.40
2023-02-19T19:55:41.505Z,10.36
2023-02-19T20:00:42.982Z,10.39
2023-02-19T20:05:46.002Z,10.36
2023-02-19T20:10:47.574Z,10.34
2023-02-19T20:15:49.132Z,10.32
2023-02-19T20:20:50.566Z,10.37
2023-02-19T20:25:52.062Z,10.45
2023-02-19T20:30:53.702Z,10.52
2023-02-19T20:35:56.957Z,10.50
2023-02-19T20:40:58.545Z,10.45
2023-02-19T20:45:59.999Z,10.39
2023-02-19T20:51:01.786Z,10.33
2023-02-19T20:56:09.339Z,10.26
2023-02-19T21:01:12.105Z,10.30
2023-02-19T21:06:13.876Z,10.31
2023-02-19T21:11:15.422Z,10.32
2023-02-19T21:16:17.342Z,10.28
2023-02-19T21:21:21.175Z,10.26
2023-02-19T21:26:23.867Z,10.26
2023-02-19T21:31:34.884Z,10.22
2023-02-19T21:36:37.117Z,10.20
2023-02-19T21:41:38.608Z,10.21
2023-02-19T21:46:40.420Z,10.16
2023-02-19T21:51:43.448Z,10.10
2023-02-19T21:56:44.922Z,10.16
2023-02-19T22:01:46.710Z,10.14
2023-02-19T22:06:48.157Z,10.13
2023-02-19T22:11:49.619Z,10.16
2023-02-19T22:16:51.760Z,10.19
2023-02-19T22:21:53.201Z,10.16
2023-02-19T22:26:58.317Z,10.18
2023-02-19T22:31:59.870Z,10.14
2023-02-19T22:37:01.324Z,10.09
2023-02-19T22:42:02.730Z,9.98
2023-02-19T22:47:04.256Z,9.93
2023-02-19T22:52:09.046Z,9.96
2023-02-19T22:57:10.475Z,9.97
2023-02-19T23:02:11.917Z,9.95
2023-02-19T23:07:13.391Z,9.91
2023-02-19T23:12:15.012Z,9.83
2023-02-19T23:17:16.407Z,9.74
2023-02-19T23:22:17.835Z,9.62
2023-02-19T23:27:19.271Z,9.48
2023-02-19T23:32:23.149Z,9.39
2023-02-19T23:37:24.544Z,9.35
2023-02-19T23:42:26.028Z,9.28
2023-02-19T23:47:30.586Z,9.19
2023-02-19T23:52:32.154Z,9.09
2023-02-19T23:57:33.652Z,9.02
